sensor_id;sensor_type;location;lat;lon;timestamp;temperature;humidity
34726;DHT22;20951;50.818;4.344;2023-04-24T00:00:01;10.10;99.90
34726;DHT22;20951;50.818;4.344;2023-04-24T00:02:41;10.10;99.90
34726;DHT22;20951;50.818;4.344;2023-04-24T00:05:14;9.90;99.90
34726;DHT22;20951;50.818;4.344;2023-04-24T00:07:44;9.90;99.90
34726;DHT22;20951;50.818;4.344;2023-04-24T00:10:20;9.90;99.90
34726;DHT22;20951;50.818;4.344;2023-04-24T00:12:56;9.90;99.90
34726;DHT22;20951;50.818;4.344;2023-04-24T00:15:22;9.90;99.90
34726;DHT22;20951;50.818;4.344;2023-04-24T00:17:57;10.00;99.90
34726;DHT22;20951;50.818;4.344;2023-04-24T00:20:32;10.10;99.90
34726;DHT22;20951;50.818;4.344;2023-04-24T00:23:03;10.10;99.90
34726;DHT22;20951;50.818;4.344;2023-04-24T00:25:29;9.90;99.90
34726;DHT22;20951;50.818;4.344;2023-04-24T00:27:55;10.10;99.90
34726;DHT22;20951;50.818;4.344;2023-04-24T00:30:30;10.20;99.90
34726;DHT22;20951;50.818;4.344;2023-04-24T00:33:08;10.10;99.90
34726;DHT22;20951;50.818;4.344;2023-04-24T00:35:47;10.20;99.90
34726;DHT22;20951;50.818;4.344;2023-04-24T00:38:12;10.00;99.90
34726;DHT22;20951;50.818;4.344;2023-04-24T00:40:41;9.90;99.90
34726;DHT22;20951;50.818;4.344;2023-04-24T00:43:16;9.80;99.90
34726;DHT22;20951;50.818;4.344;2023-04-24T00:45:53;9.70;99.90
34726;DHT22;20951;50.818;4.344;2023-04-24T00:48:22;9.80;99.90
34726;DHT22;20951;50.818;4.344;2023-04-24T00:50:58;9.80;99.90
34726;DHT22;20951;50.818;4.344;2023-04-24T00:53:24;9.90;99.90
34726;DHT22;20951;50.818;4.344;2023-04-24T00:55:53;9.80;99.90
34726;DHT22;20951;50.818;4.344;2023-04-24T00:58:29;9.80;99.90
34726;DHT22;20951;50.818;4.344;2023-04-24T01:00:56;9.80;99.90
34726;DHT22;20951;50.818;4.344;2023-04-24T01:03:28;9.80;99.90
34726;DHT22;20951;50.818;4.344;2023-04-24T01:06:12;9.90;99.90
34726;DHT22;20951;50.818;4.344;2023-04-24T01:08:48;10.00;99.90
34726;DHT22;20951;50.818;4.344;2023-04-24T01:11:18;10.10;99.90
34726;DHT22;20951;50.818;4.344;2023-04-24T01:13:49;10.00;99.90
34726;DHT22;20951;50.818;4.344;2023-04-24T01:16:25;9.80;99.90
34726;DHT22;20951;50.818;4.344;2023-04-24T01:18:57;9.70;99.90
34726;DHT22;20951;50.818;4.344;2023-04-24T01:21:27;9.60;99.90
34726;DHT22;20951;50.818;4.344;2023-04-24T01:24:00;9.60;99.90
34726;DHT22;20951;50.818;4.344;2023-04-24T01:26:28;9.60;99.90
34726;DHT22;20951;50.818;4.344;2023-04-24T01:28:54;9.50;99.90
34726;DHT22;20951;50.818;4.344;2023-04-24T01:31:26;9.50;99.90
34726;DHT22;20951;50.818;4.344;2023-04-24T01:34:10;9.50;99.90
34726;DHT22;20951;50.818;4.344;2023-04-24T01:36:51;9.40;99.90
34726;DHT22;20951;50.818;4.344;2023-04-24T01:39:35;9.10;99.90
34726;DHT22;20951;50.818;4.344;2023-04-24T01:42:17;9.20;99.90
34726;DHT22;20951;50.818;4.344;2023-04-24T01:45:04;9.20;99.90
34726;DHT22;20951;50.818;4.344;2023-04-24T01:47:41;9.20;99.90
34726;DHT22;20951;50.818;4.344;2023-04-24T01:50:22;9.20;99.90
34726;DHT22;20951;50.818;4.344;2023-04-24T01:52:48;9.20;99.90
34726;DHT22;20951;50.818;4.344;2023-04-24T01:55:14;9.40;99.90
34726;DHT22;20951;50.818;4.344;2023-04-24T01:57:52;9.50;99.90
34726;DHT22;20951;50.818;4.344;2023-04-24T02:00:25;9.50;99.90
34726;DHT22;20951;50.818;4.344;2023-04-24T02:02:55;9.50;99.90
34726;DHT22;20951;50.818;4.344;2023-04-24T02:05:23;9.40;99.90
34726;DHT22;20951;50.818;4.344;2023-04-24T02:07:59;9.30;99.90
34726;DHT22;20951;50.818;4.344;2023-04-24T02:10:43;9.10;99.90
34726;DHT22;20951;50.818;4.344;2023-04-24T02:13:16;9.10;99.90
34726;DHT22;20951;50.818;4.344;2023-04-24T02:15:52;9.10;99.90
34726;DHT22;20951;50.818;4.344;2023-04-24T02:18:35;9.20;99.90
34726;DHT22;20951;50.818;4.344;2023-04-24T02:21:11;9.30;99.90
34726;DHT22;20951;50.818;4.344;2023-04-24T02:23:43;9.20;99.90
34726;DHT22;20951;50.818;4.344;2023-04-24T02:26:21;9.30;99.90
34726;DHT22;20951;50.818;4.344;2023-04-24T02:28:49;9.20;99.90
34726;DHT22;20951;50.818;4.344;2023-04-24T02:31:27;9.20;99.90
34726;DHT22;20951;50.818;4.344;2023-04-24T02:33:52;9.10;99.90
34726;DHT22;20951;50.818;4.344;2023-04-24T02:36:27;9.10;99.90
34726;DHT22;20951;50.818;4.344;2023-04-24T02:38:53;9.20;99.90
34726;DHT22;20951;50.818;4.344;2023-04-24T02:41:27;9.20;99.90
34726;DHT22;20951;50.818;4.344;2023-04-24T02:44:16;9.10;99.90
34726;DHT22;20951;50.818;4.344;2023-04-24T02:46:58;9.20;99.90
34726;DHT22;20951;50.818;4.344;2023-04-24T02:49:36;9.30;99.90
34726;DHT22;20951;50.818;4.344;2023-04-24T02:52:12;9.30;99.90
34726;DHT22;20951;50.818;4.344;2023-04-24T02:54:48;9.10;99.90
34726;DHT22;20951;50.818;4.344;2023-04-24T02:57:24;9.00;99.90
34726;DHT22;20951;50.818;4.344;2023-04-24T03:00:05;9.10;99.90
34726;DHT22;20951;50.818;4.344;2023-04-24T03:02:44;9.10;99.90
34726;DHT22;20951;50.818;4.344;2023-04-24T03:05:25;9.10;99.90
34726;DHT22;20951;50.818;4.344;2023-04-24T03:08:01;9.00;99.90
34726;DHT22;20951;50.818;4.344;2023-04-24T03:10:29;9.10;99.90
34726;DHT22;20951;50.818;4.344;2023-04-24T03:13:05;9.10;99.90
34726;DHT22;20951;50.818;4.344;2023-04-24T03:15:41;9.10;99.90
34726;DHT22;20951;50.818;4.344;2023-04-24T03:18:17;9.20;99.90
34726;DHT22;20951;50.818;4.344;2023-04-24T03:20:51;8.90;99.90
34726;DHT22;20951;50.818;4.344;2023-04-24T03:23:27;8.90;99.90
34726;DHT22;20951;50.818;4.344;2023-04-24T03:26:00;8.90;99.90
34726;DHT22;20951;50.818;4.344;2023-04-24T03:28:46;9.00;99.90
34726;DHT22;20951;50.818;4.344;2023-04-24T03:31:24;8.80;99.90
34726;DHT22;20951;50.818;4.344;2023-04-24T03:34:08;8.90;99.90
34726;DHT22;20951;50.818;4.344;2023-04-24T03:36:44;8.90;99.90
34726;DHT22;20951;50.818;4.344;2023-04-24T03:39:22;9.00;99.90
34726;DHT22;20951;50.818;4.344;2023-04-24T03:41:54;8.80;99.90
34726;DHT22;20951;50.818;4.344;2023-04-24T03:44:32;8.80;99.90
34726;DHT22;20951;50.818;4.344;2023-04-24T03:46:58;8.70;99.90
34726;DHT22;20951;50.818;4.344;2023-04-24T03:49:40;8.70;99.90
34726;DHT22;20951;50.818;4.344;2023-04-24T03:52:21;8.70;99.90
34726;DHT22;20951;50.818;4.344;2023-04-24T03:54:56;8.70;99.90
34726;DHT22;20951;50.818;4.344;2023-04-24T03:57:24;8.80;99.90
34726;DHT22;20951;50.818;4.344;2023-04-24T03:59:52;8.80;99.90
34726;DHT22;20951;50.818;4.344;2023-04-24T04:02:19;8.90;99.90
34726;DHT22;20951;50.818;4.344;2023-04-24T04:04:48;9.00;99.90
34726;DHT22;20951;50.818;4.344;2023-04-24T04:07:27;9.10;99.90
34726;DHT22;20951;50.818;4.344;2023-04-24T04:09:58;9.00;99.90
34726;DHT22;20951;50.818;4.344;2023-04-24T04:12:34;9.10;99.90
34726;DHT22;20951;50.818;4.344;2023-04-24T04:15:03;9.10;99.90
34726;DHT22;20951;50.818;4.344;2023-04-24T04:17:29;9.10;99.90
34726;DHT22;20951;50.818;4.344;2023-04-24T04:19:57;9.10;99.90
34726;DHT22;20951;50.818;4.344;2023-04-24T04:22:34;9.20;99.90
34726;DHT22;20951;50.818;4.344;2023-04-24T04:24:59;9.20;99.90
34726;DHT22;20951;50.818;4.344;2023-04-24T04:27:28;9.20;99.90
34726;DHT22;20951;50.818;4.344;2023-04-24T04:29:58;9.30;99.90
34726;DHT22;20951;50.818;4.344;2023-04-24T04:32:28;9.30;99.90
34726;DHT22;20951;50.818;4.344;2023-04-24T04:34:54;9.20;99.90
34726;DHT22;20951;50.818;4.344;2023-04-24T04:37:30;9.20;99.90
34726;DHT22;20951;50.818;4.344;2023-04-24T04:39:57;9.20;99.90
34726;DHT22;20951;50.818;4.344;2023-04-24T04:42:28;9.30;99.90
34726;DHT22;20951;50.818;4.344;2023-04-24T04:44:59;9.20;99.90
34726;DHT22;20951;50.818;4.344;2023-04-24T04:47:37;9.20;99.90
34726;DHT22;20951;50.818;4.344;2023-04-24T04:50:15;9.10;99.90
34726;DHT22;20951;50.818;4.344;2023-04-24T04:52:50;9.10;99.90
34726;DHT22;20951;50.818;4.344;2023-04-24T04:55:26;9.10;99.90
34726;DHT22;20951;50.818;4.344;2023-04-24T04:58:03;9.00;99.90
34726;DHT22;20951;50.818;4.344;2023-04-24T05:00:42;9.00;99.90
34726;DHT22;20951;50.818;4.344;2023-04-24T05:03:18;9.00;99.90
34726;DHT22;20951;50.818;4.344;2023-04-24T05:05:57;8.90;99.90
34726;DHT22;20951;50.818;4.344;2023-04-24T05:08:31;8.80;99.90
34726;DHT22;20951;50.818;4.344;2023-04-24T05:10:59;8.90;99.90
34726;DHT22;20951;50.818;4.344;2023-04-24T05:13:29;8.90;99.90
34726;DHT22;20951;50.818;4.344;2023-04-24T05:16:07;8.80;99.90
34726;DHT22;20951;50.818;4.344;2023-04-24T05:18:37;8.90;99.90
34726;DHT22;20951;50.818;4.344;2023-04-24T05:21:16;8.90;99.90
34726;DHT22;20951;50.818;4.344;2023-04-24T05:23:57;8.80;99.90
34726;DHT22;20951;50.818;4.344;2023-04-24T05:26:40;8.90;99.90
34726;DHT22;20951;50.818;4.344;2023-04-24T05:29:18;8.90;99.90
34726;DHT22;20951;50.818;4.344;2023-04-24T05:31:44;8.90;99.90
34726;DHT22;20951;50.818;4.344;2023-04-24T05:34:20;8.90;99.90
34726;DHT22;20951;50.818;4.344;2023-04-24T05:36:56;9.00;99.90
34726;DHT22;20951;50.818;4.344;2023-04-24T05:39:35;8.90;99.90
34726;DHT22;20951;50.818;4.344;2023-04-24T05:42:11;8.90;99.90
34726;DHT22;20951;50.818;4.344;2023-04-24T05:44:42;8.80;99.90
34726;DHT22;20951;50.818;4.344;2023-04-24T05:47:15;8.80;99.90
34726;DHT22;20951;50.818;4.344;2023-04-24T05:49:52;8.80;99.90
34726;DHT22;20951;50.818;4.344;2023-04-24T05:52:18;8.80;99.90
34726;DHT22;20951;50.818;4.344;2023-04-24T05:54:49;8.80;99.90
34726;DHT22;20951;50.818;4.344;2023-04-24T05:57:45;8.90;99.90
34726;DHT22;20951;50.818;4.344;2023-04-24T06:03:15;8.90;99.90
34726;DHT22;20951;50.818;4.344;2023-04-24T06:06:03;8.80;99.90
34726;DHT22;20951;50.818;4.344;2023-04-24T06:08:39;8.80;99.90
34726;DHT22;20951;50.818;4.344;2023-04-24T06:11:13;8.70;99.90
34726;DHT22;20951;50.818;4.344;2023-04-24T06:13:59;8.60;99.90
34726;DHT22;20951;50.818;4.344;2023-04-24T06:16:27;8.70;99.90
34726;DHT22;20951;50.818;4.344;2023-04-24T06:18:58;8.70;99.90
34726;DHT22;20951;50.818;4.344;2023-04-24T06:21:24;8.70;99.90
34726;DHT22;20951;50.818;4.344;2023-04-24T06:24:03;8.80;99.90
34726;DHT22;20951;50.818;4.344;2023-04-24T06:26:33;8.80;99.90
34726;DHT22;20951;50.818;4.344;2023-04-24T06:29:00;8.80;99.90
34726;DHT22;20951;50.818;4.344;2023-04-24T06:31:52;8.90;99.90
34726;DHT22;20951;50.818;4.344;2023-04-24T06:34:28;8.90;99.90
34726;DHT22;20951;50.818;4.344;2023-04-24T06:37:08;8.80;99.90
34726;DHT22;20951;50.818;4.344;2023-04-24T06:39:36;8.80;99.90
34726;DHT22;20951;50.818;4.344;2023-04-24T06:42:05;8.80;99.90
34726;DHT22;20951;50.818;4.344;2023-04-24T06:44:45;8.80;99.90
34726;DHT22;20951;50.818;4.344;2023-04-24T06:47:24;8.80;99.90
34726;DHT22;20951;50.818;4.344;2023-04-24T06:49:57;8.90;99.90
34726;DHT22;20951;50.818;4.344;2023-04-24T06:52:26;9.00;99.90
34726;DHT22;20951;50.818;4.344;2023-04-24T06:55:03;9.00;99.90
34726;DHT22;20951;50.818;4.344;2023-04-24T06:57:32;9.10;99.90
34726;DHT22;20951;50.818;4.344;2023-04-24T07:00:14;9.20;99.90
34726;DHT22;20951;50.818;4.344;2023-04-24T07:02:52;9.30;99.90
34726;DHT22;20951;50.818;4.344;2023-04-24T07:05:23;9.10;99.90
34726;DHT22;20951;50.818;4.344;2023-04-24T07:07:50;9.10;99.90
34726;DHT22;20951;50.818;4.344;2023-04-24T07:10:26;9.30;99.90
34726;DHT22;20951;50.818;4.344;2023-04-24T07:12:55;9.30;99.90
34726;DHT22;20951;50.818;4.344;2023-04-24T07:15:24;9.40;99.90
34726;DHT22;20951;50.818;4.344;2023-04-24T07:18:00;9.20;99.90
34726;DHT22;20951;50.818;4.344;2023-04-24T07:20:26;9.30;99.90
34726;DHT22;20951;50.818;4.344;2023-04-24T07:23:02;9.30;99.90
34726;DHT22;20951;50.818;4.344;2023-04-24T07:25:28;9.20;99.90
34726;DHT22;20951;50.818;4.344;2023-04-24T07:28:01;9.40;99.90
34726;DHT22;20951;50.818;4.344;2023-04-24T07:30:47;9.50;99.90
34726;DHT22;20951;50.818;4.344;2023-04-24T07:33:16;9.70;99.90
34726;DHT22;20951;50.818;4.344;2023-04-24T07:35:44;9.70;99.90
34726;DHT22;20951;50.818;4.344;2023-04-24T07:38:17;9.90;99.90
34726;DHT22;20951;50.818;4.344;2023-04-24T07:40:52;9.70;99.90
34726;DHT22;20951;50.818;4.344;2023-04-24T07:43:20;9.80;99.90
34726;DHT22;20951;50.818;4.344;2023-04-24T07:46:04;9.60;99.90
34726;DHT22;20951;50.818;4.344;2023-04-24T07:48:39;9.70;99.90
34726;DHT22;20951;50.818;4.344;2023-04-24T07:51:16;9.70;99.90
34726;DHT22;20951;50.818;4.344;2023-04-24T07:53:45;10.00;99.90
34726;DHT22;20951;50.818;4.344;2023-04-24T07:56:11;10.40;99.90
34726;DHT22;20951;50.818;4.344;2023-04-24T07:58:54;10.60;99.90
34726;DHT22;20951;50.818;4.344;2023-04-24T08:01:22;10.50;99.90
34726;DHT22;20951;50.818;4.344;2023-04-24T08:03:50;10.50;99.90
34726;DHT22;20951;50.818;4.344;2023-04-24T08:06:22;10.40;99.90
34726;DHT22;20951;50.818;4.344;2023-04-24T08:08:48;10.50;99.90
34726;DHT22;20951;50.818;4.344;2023-04-24T08:11:19;10.40;99.90
34726;DHT22;20951;50.818;4.344;2023-04-24T08:13:47;10.40;99.90
34726;DHT22;20951;50.818;4.344;2023-04-24T08:16:23;10.40;99.90
34726;DHT22;20951;50.818;4.344;2023-04-24T08:18:50;10.60;99.90
34726;DHT22;20951;50.818;4.344;2023-04-24T08:21:18;10.70;99.90
34726;DHT22;20951;50.818;4.344;2023-04-24T08:23:56;10.70;99.90
34726;DHT22;20951;50.818;4.344;2023-04-24T08:26:22;10.60;99.90
34726;DHT22;20951;50.818;4.344;2023-04-24T08:28:50;10.60;99.90
34726;DHT22;20951;50.818;4.344;2023-04-24T08:31:16;10.60;99.90
34726;DHT22;20951;50.818;4.344;2023-04-24T08:33:51;10.60;99.90
34726;DHT22;20951;50.818;4.344;2023-04-24T08:36:45;10.60;99.90
34726;DHT22;20951;50.818;4.344;2023-04-24T08:39:39;10.60;99.90
34726;DHT22;20951;50.818;4.344;2023-04-24T08:42:08;10.90;99.90
34726;DHT22;20951;50.818;4.344;2023-04-24T08:44:36;11.70;99.90
34726;DHT22;20951;50.818;4.344;2023-04-24T08:47:15;12.10;99.90
34726;DHT22;20951;50.818;4.344;2023-04-24T08:49:48;13.00;99.90
34726;DHT22;20951;50.818;4.344;2023-04-24T08:52:18;13.50;99.90
34726;DHT22;20951;50.818;4.344;2023-04-24T08:54:48;14.20;99.90
34726;DHT22;20951;50.818;4.344;2023-04-24T08:57:14;15.10;99.90
34726;DHT22;20951;50.818;4.344;2023-04-24T08:59:41;15.60;99.90
34726;DHT22;20951;50.818;4.344;2023-04-24T09:02:10;16.60;99.90
34726;DHT22;20951;50.818;4.344;2023-04-24T09:04:37;17.10;99.90
34726;DHT22;20951;50.818;4.344;2023-04-24T09:07:06;16.50;99.90
34726;DHT22;20951;50.818;4.344;2023-04-24T09:09:34;16.50;99.90
34726;DHT22;20951;50.818;4.344;2023-04-24T09:12:01;15.60;99.90
34726;DHT22;20951;50.818;4.344;2023-04-24T09:14:29;14.70;99.90
34726;DHT22;20951;50.818;4.344;2023-04-24T09:17:04;14.10;99.90
34726;DHT22;20951;50.818;4.344;2023-04-24T09:19:30;14.30;99.90
34726;DHT22;20951;50.818;4.344;2023-04-24T09:21:56;14.30;99.90
34726;DHT22;20951;50.818;4.344;2023-04-24T09:24:24;13.90;99.90
34726;DHT22;20951;50.818;4.344;2023-04-24T09:26:58;13.40;99.90
34726;DHT22;20951;50.818;4.344;2023-04-24T09:29:24;12.90;99.90
34726;DHT22;20951;50.818;4.344;2023-04-24T09:32:18;12.70;99.90
34726;DHT22;20951;50.818;4.344;2023-04-24T09:35:12;12.20;99.90
34726;DHT22;20951;50.818;4.344;2023-04-24T09:37:50;12.60;99.90
34726;DHT22;20951;50.818;4.344;2023-04-24T09:40:23;13.60;99.90
34726;DHT22;20951;50.818;4.344;2023-04-24T09:42:54;15.10;99.90
34726;DHT22;20951;50.818;4.344;2023-04-24T09:45:35;16.90;99.90
34726;DHT22;20951;50.818;4.344;2023-04-24T09:48:01;17.80;99.90
34726;DHT22;20951;50.818;4.344;2023-04-24T09:50:29;17.40;99.90
34726;DHT22;20951;50.818;4.344;2023-04-24T09:53:01;15.80;99.90
34726;DHT22;20951;50.818;4.344;2023-04-24T09:55:41;14.90;99.90
34726;DHT22;20951;50.818;4.344;2023-04-24T09:58:28;14.20;99.90
34726;DHT22;20951;50.818;4.344;2023-04-24T10:00:55;13.60;99.90
34726;DHT22;20951;50.818;4.344;2023-04-24T10:03:31;13.10;99.90
34726;DHT22;20951;50.818;4.344;2023-04-24T10:06:12;12.90;99.90
34726;DHT22;20951;50.818;4.344;2023-04-24T10:08:46;12.80;99.90
34726;DHT22;20951;50.818;4.344;2023-04-24T10:11:18;12.60;99.90
34726;DHT22;20951;50.818;4.344;2023-04-24T10:13:50;12.20;99.90
34726;DHT22;20951;50.818;4.344;2023-04-24T10:16:16;11.90;99.90
34726;DHT22;20951;50.818;4.344;2023-04-24T10:18:52;11.70;99.90
34726;DHT22;20951;50.818;4.344;2023-04-24T10:21:31;11.90;99.90
34726;DHT22;20951;50.818;4.344;2023-04-24T10:24:14;12.10;99.90
34726;DHT22;20951;50.818;4.344;2023-04-24T10:26:52;12.30;99.90
34726;DHT22;20951;50.818;4.344;2023-04-24T10:29:19;12.40;99.90
34726;DHT22;20951;50.818;4.344;2023-04-24T10:31:56;12.40;99.90
34726;DHT22;20951;50.818;4.344;2023-04-24T10:34:27;12.40;99.90
34726;DHT22;20951;50.818;4.344;2023-04-24T10:36:55;12.20;99.90
34726;DHT22;20951;50.818;4.344;2023-04-24T10:39:26;12.10;99.90
34726;DHT22;20951;50.818;4.344;2023-04-24T10:41:55;12.10;99.90
34726;DHT22;20951;50.818;4.344;2023-04-24T10:44:36;12.20;99.90
34726;DHT22;20951;50.818;4.344;2023-04-24T10:47:04;12.60;99.90
34726;DHT22;20951;50.818;4.344;2023-04-24T10:49:31;12.80;99.90
34726;DHT22;20951;50.818;4.344;2023-04-24T10:52:10;13.00;99.90
34726;DHT22;20951;50.818;4.344;2023-04-24T10:54:47;13.10;99.90
34726;DHT22;20951;50.818;4.344;2023-04-24T10:57:27;13.30;99.90
34726;DHT22;20951;50.818;4.344;2023-04-24T11:00:20;13.40;99.90
34726;DHT22;20951;50.818;4.344;2023-04-24T11:02:49;13.20;99.90
34726;DHT22;20951;50.818;4.344;2023-04-24T11:05:19;12.90;99.90
34726;DHT22;20951;50.818;4.344;2023-04-24T11:08:11;13.10;99.90
34726;DHT22;20951;50.818;4.344;2023-04-24T11:10:59;13.20;99.90
34726;DHT22;20951;50.818;4.344;2023-04-24T11:19:03;13.40;99.90
34726;DHT22;20951;50.818;4.344;2023-04-24T11:27:07;14.00;99.90
34726;DHT22;20951;50.818;4.344;2023-04-24T11:29:41;14.30;99.90
34726;DHT22;20951;50.818;4.344;2023-04-24T11:32:46;14.10;99.90
34726;DHT22;20951;50.818;4.344;2023-04-24T11:35:20;13.90;99.90
34726;DHT22;20951;50.818;4.344;2023-04-24T11:37:58;13.60;99.90
34726;DHT22;20951;50.818;4.344;2023-04-24T11:40:34;13.50;99.90
34726;DHT22;20951;50.818;4.344;2023-04-24T11:43:09;13.50;99.90
34726;DHT22;20951;50.818;4.344;2023-04-24T11:45:50;13.50;99.90
34726;DHT22;20951;50.818;4.344;2023-04-24T11:48:26;13.50;99.90
34726;DHT22;20951;50.818;4.344;2023-04-24T11:51:01;13.50;99.90
34726;DHT22;20951;50.818;4.344;2023-04-24T11:53:27;13.60;99.90
34726;DHT22;20951;50.818;4.344;2023-04-24T11:55:58;14.00;99.90
34726;DHT22;20951;50.818;4.344;2023-04-24T11:58:27;14.40;99.90
34726;DHT22;20951;50.818;4.344;2023-04-24T12:00:57;14.20;99.90
34726;DHT22;20951;50.818;4.344;2023-04-24T12:03:36;14.00;99.90
34726;DHT22;20951;50.818;4.344;2023-04-24T12:06:12;13.90;99.90
34726;DHT22;20951;50.818;4.344;2023-04-24T12:08:38;13.90;99.90
34726;DHT22;20951;50.818;4.344;2023-04-24T12:11:16;14.60;99.90
34726;DHT22;20951;50.818;4.344;2023-04-24T12:13:45;15.00;99.90
34726;DHT22;20951;50.818;4.344;2023-04-24T12:16:21;15.90;99.90
34726;DHT22;20951;50.818;4.344;2023-04-24T12:19:01;16.30;99.90
34726;DHT22;20951;50.818;4.344;2023-04-24T12:21:27;16.00;99.90
34726;DHT22;20951;50.818;4.344;2023-04-24T12:23:55;15.80;99.90
34726;DHT22;20951;50.818;4.344;2023-04-24T12:26:21;15.50;99.90
34726;DHT22;20951;50.818;4.344;2023-04-24T12:28:51;15.10;99.90
34726;DHT22;20951;50.818;4.344;2023-04-24T12:31:21;14.80;99.90
34726;DHT22;20951;50.818;4.344;2023-04-24T12:33:57;14.90;99.90
34726;DHT22;20951;50.818;4.344;2023-04-24T12:36:35;14.80;99.90
34726;DHT22;20951;50.818;4.344;2023-04-24T12:39:15;15.00;99.90
34726;DHT22;20951;50.818;4.344;2023-04-24T12:41:56;15.40;99.90
34726;DHT22;20951;50.818;4.344;2023-04-24T12:44:31;16.20;99.90
34726;DHT22;20951;50.818;4.344;2023-04-24T12:47:00;15.90;99.90
34726;DHT22;20951;50.818;4.344;2023-04-24T12:49:27;15.90;99.90
34726;DHT22;20951;50.818;4.344;2023-04-24T12:51:53;16.30;99.90
34726;DHT22;20951;50.818;4.344;2023-04-24T12:54:19;17.00;99.90
34726;DHT22;20951;50.818;4.344;2023-04-24T12:56:48;17.60;99.90
34726;DHT22;20951;50.818;4.344;2023-04-24T12:59:23;17.60;99.90
34726;DHT22;20951;50.818;4.344;2023-04-24T13:01:52;18.00;99.90
34726;DHT22;20951;50.818;4.344;2023-04-24T13:04:17;18.60;99.90
34726;DHT22;20951;50.818;4.344;2023-04-24T13:06:46;17.80;99.90
34726;DHT22;20951;50.818;4.344;2023-04-24T13:09:12;16.50;99.90
34726;DHT22;20951;50.818;4.344;2023-04-24T13:11:41;15.90;99.90
34726;DHT22;20951;50.818;4.344;2023-04-24T13:14:06;15.40;99.90
34726;DHT22;20951;50.818;4.344;2023-04-24T13:16:44;15.00;99.90
34726;DHT22;20951;50.818;4.344;2023-04-24T13:19:12;14.50;99.90
34726;DHT22;20951;50.818;4.344;2023-04-24T13:21:45;14.10;99.90
34726;DHT22;20951;50.818;4.344;2023-04-24T13:24:11;14.50;99.90
34726;DHT22;20951;50.818;4.344;2023-04-24T13:26:40;15.60;99.90
34726;DHT22;20951;50.818;4.344;2023-04-24T13:29:06;16.40;99.90
34726;DHT22;20951;50.818;4.344;2023-04-24T13:31:31;16.90;99.90
34726;DHT22;20951;50.818;4.344;2023-04-24T13:33:57;16.10;99.90
34726;DHT22;20951;50.818;4.344;2023-04-24T13:36:31;15.30;99.90
34726;DHT22;20951;50.818;4.344;2023-04-24T13:39:10;15.00;99.90
34726;DHT22;20951;50.818;4.344;2023-04-24T13:41:39;14.80;99.90
34726;DHT22;20951;50.818;4.344;2023-04-24T13:44:19;14.60;99.90
34726;DHT22;20951;50.818;4.344;2023-04-24T13:46:50;14.30;99.90
34726;DHT22;20951;50.818;4.344;2023-04-24T13:49:30;14.10;99.90
34726;DHT22;20951;50.818;4.344;2023-04-24T13:52:08;14.60;99.90
34726;DHT22;20951;50.818;4.344;2023-04-24T13:54:49;14.90;99.90
34726;DHT22;20951;50.818;4.344;2023-04-24T13:57:15;14.70;99.90
34726;DHT22;20951;50.818;4.344;2023-04-24T13:59:54;14.70;99.90
34726;DHT22;20951;50.818;4.344;2023-04-24T14:02:33;14.70;99.90
34726;DHT22;20951;50.818;4.344;2023-04-24T14:05:02;14.70;99.90
34726;DHT22;20951;50.818;4.344;2023-04-24T14:07:37;14.60;99.90
34726;DHT22;20951;50.818;4.344;2023-04-24T14:10:07;14.40;99.90
34726;DHT22;20951;50.818;4.344;2023-04-24T14:12:50;14.20;99.90
34726;DHT22;20951;50.818;4.344;2023-04-24T14:15:16;13.90;99.90
34726;DHT22;20951;50.818;4.344;2023-04-24T14:17:45;13.80;99.90
34726;DHT22;20951;50.818;4.344;2023-04-24T14:20:12;13.80;99.90
34726;DHT22;20951;50.818;4.344;2023-04-24T14:22:55;13.60;99.90
34726;DHT22;20951;50.818;4.344;2023-04-24T14:25:31;13.40;99.90
34726;DHT22;20951;50.818;4.344;2023-04-24T14:28:01;13.20;99.90
34726;DHT22;20951;50.818;4.344;2023-04-24T14:30:37;13.10;99.90
34726;DHT22;20951;50.818;4.344;2023-04-24T14:33:23;12.90;99.90
34726;DHT22;20951;50.818;4.344;2023-04-24T14:35:51;12.90;99.90
34726;DHT22;20951;50.818;4.344;2023-04-24T14:38:47;12.90;99.90
34726;DHT22;20951;50.818;4.344;2023-04-24T14:41:23;12.90;99.90
34726;DHT22;20951;50.818;4.344;2023-04-24T14:43:49;13.00;99.90
34726;DHT22;20951;50.818;4.344;2023-04-24T14:46:32;13.00;99.90
34726;DHT22;20951;50.818;4.344;2023-04-24T14:49:05;13.20;99.90
34726;DHT22;20951;50.818;4.344;2023-04-24T14:51:40;13.20;99.90
34726;DHT22;20951;50.818;4.344;2023-04-24T14:54:06;13.30;99.90
34726;DHT22;20951;50.818;4.344;2023-04-24T14:56:43;13.20;99.90
34726;DHT22;20951;50.818;4.344;2023-04-24T14:59:12;13.30;99.90
34726;DHT22;20951;50.818;4.344;2023-04-24T15:01:41;13.40;99.90
34726;DHT22;20951;50.818;4.344;2023-04-24T15:04:19;13.50;99.90
34726;DHT22;20951;50.818;4.344;2023-04-24T15:06:47;13.50;99.90
34726;DHT22;20951;50.818;4.344;2023-04-24T15:09:26;13.60;99.90
34726;DHT22;20951;50.818;4.344;2023-04-24T15:12:03;13.50;99.90
34726;DHT22;20951;50.818;4.344;2023-04-24T15:14:39;13.30;99.90
34726;DHT22;20951;50.818;4.344;2023-04-24T15:17:07;13.40;99.90
34726;DHT22;20951;50.818;4.344;2023-04-24T15:19:36;13.40;99.90
34726;DHT22;20951;50.818;4.344;2023-04-24T15:22:02;13.30;99.90
34726;DHT22;20951;50.818;4.344;2023-04-24T15:24:33;13.30;99.90
34726;DHT22;20951;50.818;4.344;2023-04-24T15:27:02;13.20;99.90
34726;DHT22;20951;50.818;4.344;2023-04-24T15:29:28;13.10;99.90
34726;DHT22;20951;50.818;4.344;2023-04-24T15:32:00;13.20;99.90
34726;DHT22;20951;50.818;4.344;2023-04-24T15:34:28;13.30;99.90
34726;DHT22;20951;50.818;4.344;2023-04-24T15:36:58;13.50;99.90
34726;DHT22;20951;50.818;4.344;2023-04-24T15:39:29;13.50;99.90
34726;DHT22;20951;50.818;4.344;2023-04-24T15:41:59;13.50;99.90
34726;DHT22;20951;50.818;4.344;2023-04-24T15:44:34;13.50;99.90
34726;DHT22;20951;50.818;4.344;2023-04-24T15:47:05;13.40;99.90
34726;DHT22;20951;50.818;4.344;2023-04-24T15:49:41;13.10;99.90
34726;DHT22;20951;50.818;4.344;2023-04-24T15:52:07;13.10;99.90
34726;DHT22;20951;50.818;4.344;2023-04-24T15:54:44;12.90;99.90
34726;DHT22;20951;50.818;4.344;2023-04-24T15:57:20;12.90;99.90
34726;DHT22;20951;50.818;4.344;2023-04-24T15:59:52;12.80;99.90
34726;DHT22;20951;50.818;4.344;2023-04-24T16:02:23;12.80;99.90
34726;DHT22;20951;50.818;4.344;2023-04-24T16:04:54;12.90;99.90
34726;DHT22;20951;50.818;4.344;2023-04-24T16:07:40;12.90;99.90
34726;DHT22;20951;50.818;4.344;2023-04-24T16:10:19;12.90;99.90
34726;DHT22;20951;50.818;4.344;2023-04-24T16:12:55;13.00;99.90
34726;DHT22;20951;50.818;4.344;2023-04-24T16:15:36;12.90;99.90
34726;DHT22;20951;50.818;4.344;2023-04-24T16:18:15;13.00;99.90
34726;DHT22;20951;50.818;4.344;2023-04-24T16:20:46;12.90;99.90
34726;DHT22;20951;50.818;4.344;2023-04-24T16:23:20;12.80;99.90
34726;DHT22;20951;50.818;4.344;2023-04-24T16:25:56;12.80;99.90
34726;DHT22;20951;50.818;4.344;2023-04-24T16:28:29;12.70;99.90
34726;DHT22;20951;50.818;4.344;2023-04-24T16:31:04;12.70;99.90